South Reading, Vermont
Current Conditions -  °F | °C
As of 6:54 AM on Wednesday 26 Nov 2014 (Local Time) from KVSF Reporting Station
Few Clouds Few Clouds  
Wind Chill: 35°   Ceiling: Unl
Heat Index: 35°   Visibility: 10mi
Dew Point: 27°   Wind: 0mph
Humidity: 72%   Direction: NA
Pressure: 30.19"   Gusts: NA
Location:  43.4162°N, 72.6048°W
Report Text: KVSF 261154Z AUTO 00000KT 10SM FEW037 02/M03 A3019 RMK AO2 SLP231 T00171028 10050 20017 51005
Loading
Personal Weather Stations






























Interactive Weather Map New forecast layout! Learn more

10-Day Weather Forecast

Advertisements
Track Severe Weather on mobile